createdAt,value
2019-05-17T00:02:26.411Z,4.40
2019-05-17T00:04:53.319Z,4.60
2019-05-17T00:07:20.907Z,4.33
2019-05-17T00:09:48.861Z,4.63
2019-05-17T00:12:16.675Z,4.40
2019-05-17T00:14:44.518Z,4.53
2019-05-17T00:17:12.068Z,4.40
2019-05-17T00:19:39.908Z,4.53
2019-05-17T00:22:07.568Z,5.40
2019-05-17T00:24:37.009Z,4.97
2019-05-17T00:27:06.559Z,5.03
2019-05-17T00:29:34.314Z,4.87
2019-05-17T00:32:01.870Z,5.00
2019-05-17T00:34:29.595Z,4.83
2019-05-17T00:36:57.483Z,5.03
2019-05-17T00:39:27.058Z,5.20
2019-05-17T00:41:54.488Z,5.13
2019-05-17T00:44:22.110Z,5.27
2019-05-17T00:46:49.862Z,5.03
2019-05-17T00:49:17.570Z,4.43
2019-05-17T00:51:47.269Z,4.97
2019-05-17T00:54:14.598Z,5.13
2019-05-17T00:56:42.139Z,4.53
2019-05-17T00:59:10.116Z,4.93
2019-05-17T01:01:37.678Z,5.23
2019-05-17T01:04:07.743Z,5.20
2019-05-17T01:06:37.460Z,5.80
2019-05-17T01:09:16.804Z,5.70
2019-05-17T01:11:44.167Z,5.80
2019-05-17T01:14:11.999Z,5.63
2019-05-17T01:16:39.762Z,6.10
2019-05-17T01:19:07.413Z,6.03
2019-05-17T01:21:36.716Z,5.60
2019-05-17T01:24:06.661Z,5.93
2019-05-17T01:26:33.815Z,5.33
2019-05-17T01:29:01.400Z,5.60
2019-05-17T01:31:31.337Z,5.70
2019-05-17T01:33:58.869Z,5.23
2019-05-17T01:36:26.665Z,5.07
2019-05-17T01:38:54.255Z,6.00
2019-05-17T01:41:22.063Z,5.30
2019-05-17T01:43:49.588Z,5.43
2019-05-17T01:46:17.336Z,5.03
2019-05-17T01:48:46.945Z,5.97
2019-05-17T01:51:16.756Z,5.33
2019-05-17T01:53:44.117Z,4.97
2019-05-17T01:56:12.150Z,4.70
2019-05-17T01:58:39.745Z,4.77
2019-05-17T02:01:07.745Z,4.50
2019-05-17T02:03:37.474Z,4.50
2019-05-17T02:06:07.239Z,4.80
2019-05-17T02:08:37.019Z,4.37
2019-05-17T02:11:06.654Z,4.07
2019-05-17T02:13:33.620Z,5.37
2019-05-17T02:16:01.189Z,4.70
2019-05-17T02:18:28.929Z,4.63
2019-05-17T02:20:57.143Z,5.10
2019-05-17T02:23:26.870Z,4.83
2019-05-17T02:25:54.245Z,4.87
2019-05-17T02:51:48.492Z,5.47
2019-05-17T03:12:53.005Z,6.07
2019-05-17T03:15:52.806Z,5.63
2019-05-17T03:19:12.781Z,5.73
2019-05-17T03:26:23.304Z,5.40
2019-05-17T03:29:13.387Z,5.60
2019-05-17T03:32:25.844Z,5.87
2019-05-17T03:38:53.420Z,6.43
2019-05-17T03:41:58.061Z,6.80
2019-05-17T03:44:49.048Z,6.63
2019-05-17T03:51:33.493Z,6.17
2019-05-17T03:54:47.915Z,6.10
2019-05-17T03:58:14.822Z,5.87
2019-05-17T04:01:54.663Z,6.27
2019-05-17T04:05:23.557Z,6.37
2019-05-17T04:07:54.530Z,5.53
2019-05-17T04:11:17.645Z,5.67
2019-05-17T04:13:53.744Z,5.83
2019-05-17T04:20:32.883Z,6.53
2019-05-17T04:23:33.569Z,6.70
2019-05-17T04:26:05.502Z,6.70
2019-05-17T04:32:13.004Z,6.63
2019-05-17T04:35:03.987Z,6.00
2019-05-17T04:37:38.797Z,6.50
2019-05-17T04:40:53.449Z,5.97
2019-05-17T04:43:42.490Z,6.33
2019-05-17T04:47:03.431Z,5.83
2019-05-17T04:49:47.757Z,5.67
2019-05-17T04:52:36.179Z,6.60
2019-05-17T04:55:06.192Z,6.47
2019-05-17T04:57:34.719Z,6.63
2019-05-17T05:00:04.332Z,7.43
2019-05-17T05:02:33.433Z,6.17
2019-05-17T05:05:03.647Z,6.90
2019-05-17T05:07:33.552Z,6.37
2019-05-17T05:10:02.956Z,6.37
2019-05-17T05:12:33.559Z,7.20
2019-05-17T05:15:03.543Z,6.33
2019-05-17T05:17:32.697Z,6.07
2019-05-17T05:20:17.801Z,5.50
2019-05-17T05:22:49.023Z,5.67
2019-05-17T05:25:32.835Z,5.47
2019-05-17T05:28:02.471Z,4.57
2019-05-17T05:30:32.484Z,5.63
2019-05-17T05:33:01.995Z,5.40
2019-05-17T05:35:31.672Z,5.10
2019-05-17T05:38:02.315Z,5.13
2019-05-17T05:40:32.025Z,5.40
2019-05-17T05:43:02.251Z,5.70
2019-05-17T05:45:32.108Z,5.37
2019-05-17T05:48:03.536Z,5.33
2019-05-17T05:50:32.433Z,5.37
2019-05-17T05:53:03.801Z,5.77
2019-05-17T05:55:32.123Z,4.97
2019-05-17T05:58:02.823Z,4.77
2019-05-17T06:00:32.547Z,5.10
2019-05-17T06:02:59.499Z,4.90
2019-05-17T06:05:27.217Z,5.23
2019-05-17T06:07:55.913Z,5.30
2019-05-17T06:10:24.216Z,4.80
2019-05-17T06:12:52.463Z,5.57
2019-05-17T06:15:21.942Z,5.13
2019-05-17T06:17:51.917Z,4.50
2019-05-17T06:20:22.421Z,4.70
2019-05-17T06:22:51.840Z,4.80
2019-05-17T06:25:24.737Z,4.80
2019-05-17T06:27:52.917Z,4.77
2019-05-17T06:30:22.105Z,4.20
2019-05-17T06:32:51.747Z,3.57
2019-05-17T06:35:21.768Z,3.97
2019-05-17T06:37:49.595Z,4.03
2019-05-17T06:40:17.566Z,3.50
2019-05-17T06:42:45.843Z,3.53
2019-05-17T06:45:14.033Z,3.53
2019-05-17T06:47:43.084Z,4.03
2019-05-17T06:50:13.931Z,3.97
2019-05-17T06:52:43.436Z,4.30
2019-05-17T06:55:12.800Z,4.20
2019-05-17T06:57:48.344Z,3.83
2019-05-17T07:00:20.563Z,4.40
2019-05-17T07:02:49.665Z,3.63
2019-05-17T07:05:21.592Z,4.20
2019-05-17T07:07:49.921Z,3.50
2019-05-17T07:10:19.653Z,3.63
2019-05-17T07:12:57.681Z,3.33
2019-05-17T07:15:19.712Z,3.03
2019-05-17T07:17:47.069Z,3.20
2019-05-17T07:20:15.158Z,3.00
2019-05-17T07:22:42.775Z,3.20
2019-05-17T07:25:11.146Z,3.30
2019-05-17T07:27:44.686Z,2.93
2019-05-17T07:30:09.972Z,3.00
2019-05-17T07:32:40.264Z,2.90
2019-05-17T07:35:10.409Z,3.23
2019-05-17T07:37:39.531Z,3.00
2019-05-17T07:40:07.016Z,3.40
2019-05-17T07:42:34.650Z,3.40
2019-05-17T07:45:02.628Z,2.93
2019-05-17T07:47:30.753Z,3.30
2019-05-17T07:50:01.001Z,3.80
2019-05-17T07:52:29.813Z,3.40
2019-05-17T07:55:01.922Z,3.50
2019-05-17T07:57:29.782Z,3.83
2019-05-17T08:00:41.357Z,3.90
2019-05-17T08:03:20.658Z,3.60
2019-05-17T08:05:47.261Z,3.47
2019-05-17T08:08:15.094Z,3.50
2019-05-17T08:10:42.783Z,3.60
2019-05-17T08:13:24.775Z,3.33
2019-05-17T08:15:40.027Z,3.20
2019-05-17T08:18:10.489Z,3.60
2019-05-17T08:20:37.148Z,3.30
2019-05-17T08:23:05.219Z,3.30
2019-05-17T08:25:33.091Z,3.27
2019-05-17T08:28:00.728Z,3.10
2019-05-17T08:30:30.308Z,2.80
2019-05-17T08:33:00.754Z,3.47
2019-05-17T08:35:27.520Z,3.40
2019-05-17T08:37:55.378Z,2.87
2019-05-17T08:40:23.030Z,3.07
2019-05-17T08:42:50.694Z,3.20
2019-05-17T08:45:20.431Z,3.53
2019-05-17T08:47:49.862Z,3.73
2019-05-17T08:50:19.873Z,3.33
2019-05-17T08:52:49.329Z,3.07
2019-05-17T08:55:16.171Z,3.47
2019-05-17T08:57:44.079Z,3.30
2019-05-17T09:00:11.771Z,3.00
2019-05-17T09:02:40.827Z,3.23
2019-05-17T09:05:09.910Z,2.77
2019-05-17T09:07:39.859Z,2.90
2019-05-17T09:10:10.043Z,3.00
2019-05-17T09:12:37.350Z,2.67
2019-05-17T09:15:05.717Z,2.60
2019-05-17T09:17:33.363Z,3.00
2019-05-17T09:20:00.993Z,2.43
2019-05-17T09:22:30.559Z,2.87
2019-05-17T09:24:59.602Z,2.90
2019-05-17T09:27:27.216Z,2.87
2019-05-17T09:29:54.823Z,3.40
2019-05-17T09:34:13.471Z,2.50
2019-05-17T09:37:18.923Z,2.60
2019-05-17T09:39:45.610Z,2.50
2019-05-17T09:42:13.189Z,2.37
2019-05-17T09:44:40.836Z,2.47
2019-05-17T09:47:10.073Z,2.10
2019-05-17T09:49:39.462Z,2.37
2019-05-17T09:52:09.457Z,2.40
2019-05-17T09:54:42.401Z,2.50
2019-05-17T09:57:06.007Z,2.30
2019-05-17T09:59:33.590Z,2.30
2019-05-17T10:02:01.146Z,1.70
2019-05-17T10:04:30.433Z,1.77
2019-05-17T10:06:59.380Z,2.33
2019-05-17T10:09:27.210Z,2.30
2019-05-17T10:11:54.877Z,1.93
2019-05-17T10:14:28.178Z,1.90
2019-05-17T10:16:51.816Z,1.90
2019-05-17T10:19:21.885Z,2.10
2019-05-17T10:21:48.755Z,2.00
2019-05-17T10:24:16.472Z,2.20
2019-05-17T10:26:44.085Z,1.73
2019-05-17T10:29:11.673Z,1.70
2019-05-17T10:31:39.831Z,1.70
2019-05-17T10:34:09.618Z,1.97
2019-05-17T10:36:37.108Z,1.50
2019-05-17T10:39:06.070Z,2.13
2019-05-17T10:41:33.750Z,1.70
2019-05-17T10:44:01.316Z,1.63
2019-05-17T10:46:30.019Z,1.40
2019-05-17T10:48:57.889Z,1.83
2019-05-17T10:51:25.621Z,1.33
2019-05-17T10:53:53.308Z,1.70
2019-05-17T10:56:23.539Z,1.90
2019-05-17T10:58:50.580Z,1.60
2019-05-17T11:01:20.066Z,1.70
2019-05-17T11:03:50.102Z,1.70
2019-05-17T11:06:19.758Z,1.60
2019-05-17T11:08:49.958Z,2.03
2019-05-17T11:11:20.028Z,1.47
2019-05-17T11:13:47.368Z,1.83
2019-05-17T11:16:15.226Z,1.87
2019-05-17T11:18:42.866Z,2.10
2019-05-17T11:21:10.544Z,1.80
2019-05-17T11:23:38.245Z,1.60
2019-05-17T11:26:05.830Z,1.90
2019-05-17T11:28:33.642Z,1.73
2019-05-17T11:31:01.407Z,1.90
2019-05-17T11:33:29.031Z,1.80
2019-05-17T11:35:56.599Z,1.20
2019-05-17T11:38:24.357Z,1.70
2019-05-17T11:40:51.925Z,1.67
2019-05-17T11:43:19.581Z,1.47
2019-05-17T11:45:50.718Z,1.70
2019-05-17T11:48:18.268Z,1.73
2019-05-17T11:50:46.344Z,1.60
2019-05-17T11:53:14.058Z,1.80
2019-05-17T11:55:41.681Z,1.70
2019-05-17T11:58:09.308Z,1.73
2019-05-17T12:00:37.082Z,2.40
2019-05-17T12:03:04.674Z,2.33
2019-05-17T12:05:32.398Z,1.73
2019-05-17T12:08:00.082Z,2.03
2019-05-17T12:10:27.884Z,1.90
2019-05-17T12:13:14.977Z,1.70
2019-05-17T12:15:45.369Z,2.00
2019-05-17T12:18:12.326Z,1.70
2019-05-17T12:20:40.127Z,1.80
2019-05-17T12:23:08.041Z,1.73
2019-05-17T12:25:36.093Z,1.77
2019-05-17T12:28:03.870Z,2.00
2019-05-17T12:30:31.546Z,2.20
2019-05-17T12:32:59.306Z,1.80
2019-05-17T12:35:27.022Z,1.50
2019-05-17T12:37:54.840Z,1.73
2019-05-17T12:40:22.633Z,1.27
2019-05-17T12:42:50.307Z,1.57
2019-05-17T12:45:18.137Z,2.63
2019-05-17T12:47:46.036Z,2.07
2019-05-17T12:50:13.788Z,1.70
2019-05-17T12:52:41.403Z,1.70
2019-05-17T12:55:09.225Z,1.50
2019-05-17T12:57:36.883Z,2.87
2019-05-17T13:00:08.031Z,1.70
2019-05-17T13:02:35.625Z,1.43
2019-05-17T13:05:03.623Z,1.50
2019-05-17T13:07:31.539Z,1.53
2019-05-17T13:09:59.363Z,2.33
2019-05-17T13:12:27.099Z,1.67
2019-05-17T13:14:54.825Z,2.10
2019-05-17T13:17:22.499Z,1.53
2019-05-17T13:19:50.264Z,6.07
2019-05-17T13:22:17.904Z,1.63
2019-05-17T13:24:45.582Z,1.50
2019-05-17T13:27:13.170Z,2.20
2019-05-17T13:29:40.945Z,1.90
2019-05-17T13:32:08.601Z,1.37
2019-05-17T13:34:36.212Z,1.47
2019-05-17T13:37:03.888Z,1.47
2019-05-17T13:39:31.929Z,1.80
2019-05-17T13:41:59.565Z,1.87
2019-05-17T13:44:27.241Z,1.43
2019-05-17T13:46:54.962Z,2.63
2019-05-17T13:49:28.600Z,1.53
2019-05-17T13:51:56.302Z,1.47
2019-05-17T13:54:23.962Z,1.60
2019-05-17T13:56:51.661Z,1.63
2019-05-17T13:59:19.526Z,1.43
2019-05-17T14:01:47.398Z,1.40
2019-05-17T14:04:15.167Z,1.20
2019-05-17T14:06:42.878Z,1.20
2019-05-17T14:09:10.668Z,1.20
2019-05-17T14:11:38.596Z,1.20
2019-05-17T14:14:06.303Z,1.40
2019-05-17T14:16:34.729Z,2.10
2019-05-17T14:19:02.491Z,1.40
2019-05-17T14:21:30.074Z,1.87
2019-05-17T14:23:57.689Z,1.20
2019-05-17T14:26:25.394Z,1.43
2019-05-17T14:28:53.109Z,1.20
2019-05-17T14:39:27.755Z,1.20
2019-05-17T14:41:55.471Z,1.17
2019-05-17T14:44:23.287Z,0.90
2019-05-17T14:46:51.041Z,1.40
2019-05-17T14:49:19.209Z,1.10
2019-05-17T14:51:46.953Z,1.40
2019-05-17T14:54:14.759Z,2.43
2019-05-17T14:56:42.509Z,1.53
2019-05-17T14:59:10.191Z,1.70
2019-05-17T15:01:38.035Z,1.40
2019-05-17T15:04:06.558Z,1.70
2019-05-17T15:06:34.455Z,1.60
2019-05-17T15:09:04.497Z,1.97
2019-05-17T15:11:32.294Z,1.60
2019-05-17T15:13:59.917Z,1.60
2019-05-17T15:16:27.696Z,2.00
2019-05-17T15:18:55.474Z,1.83
2019-05-17T15:21:23.157Z,2.77
2019-05-17T15:23:51.824Z,2.90
2019-05-17T15:26:19.552Z,2.00
2019-05-17T15:28:47.343Z,1.93
2019-05-17T15:31:15.079Z,1.90
2019-05-17T15:33:42.795Z,9.30
2019-05-17T15:36:10.670Z,6.03
2019-05-17T15:38:38.540Z,1.97
2019-05-17T15:41:06.222Z,1.60
2019-05-17T15:43:34.146Z,2.03
2019-05-17T15:46:01.884Z,2.13
2019-05-17T15:48:29.750Z,2.10
2019-05-17T15:50:57.543Z,2.03
2019-05-17T15:53:25.348Z,2.00
2019-05-17T15:55:53.077Z,1.70
2019-05-17T15:58:21.030Z,2.10
2019-05-17T16:00:48.763Z,1.70
2019-05-17T16:03:16.776Z,1.77
2019-05-17T16:05:44.542Z,2.37
2019-05-17T16:08:12.295Z,1.90
2019-05-17T16:10:40.136Z,2.20
2019-05-17T16:13:07.814Z,1.90
2019-05-17T16:15:35.512Z,2.20
2019-05-17T16:18:03.252Z,2.13
2019-05-17T16:20:31.038Z,1.70
2019-05-17T16:22:58.731Z,2.03
2019-05-17T16:25:26.382Z,1.77
2019-05-17T16:27:54.276Z,2.20
2019-05-17T16:30:22.024Z,2.77
2019-05-17T16:32:50.822Z,2.00
2019-05-17T16:35:18.710Z,2.13
2019-05-17T16:37:46.382Z,1.90
2019-05-17T16:40:14.289Z,2.07
2019-05-17T16:42:42.248Z,2.50
2019-05-17T16:45:12.610Z,1.93
2019-05-17T16:47:40.291Z,1.90
2019-05-17T16:50:08.301Z,2.00
2019-05-17T16:52:36.038Z,2.50
2019-05-17T16:55:04.323Z,2.00
2019-05-17T16:57:32.058Z,2.60
2019-05-17T16:59:59.799Z,2.50
2019-05-17T17:02:27.483Z,3.00
2019-05-17T17:04:55.238Z,1.80
2019-05-17T17:07:23.124Z,13.07
2019-05-17T17:09:50.776Z,3.03
2019-05-17T17:12:18.579Z,2.13
2019-05-17T17:14:46.396Z,2.17
2019-05-17T17:17:14.205Z,2.00
2019-05-17T17:19:41.890Z,1.93
2019-05-17T17:22:09.737Z,2.03
2019-05-17T17:24:37.403Z,2.20
2019-05-17T17:27:05.138Z,2.40
2019-05-17T17:29:32.932Z,1.90
2019-05-17T17:32:00.619Z,2.13
2019-05-17T17:34:28.413Z,2.43
2019-05-17T17:36:56.136Z,2.30
2019-05-17T17:39:23.762Z,2.50
2019-05-17T17:41:51.369Z,2.50
2019-05-17T17:44:19.031Z,2.77
2019-05-17T17:46:46.698Z,2.50
2019-05-17T17:49:15.339Z,2.63
2019-05-17T17:51:43.001Z,2.43
2019-05-17T17:54:10.745Z,8.77
2019-05-17T17:56:38.440Z,2.90
2019-05-17T17:59:06.374Z,2.50
2019-05-17T18:01:34.024Z,3.37
2019-05-17T18:04:01.800Z,2.97
2019-05-17T18:06:29.691Z,2.80
2019-05-17T18:08:57.599Z,3.03
2019-05-17T18:11:25.399Z,3.00
2019-05-17T18:13:53.129Z,2.73
2019-05-17T18:16:20.873Z,3.80
2019-05-17T18:18:48.705Z,3.33
2019-05-17T18:21:16.564Z,3.10
2019-05-17T18:23:44.186Z,3.80
2019-05-17T18:26:11.776Z,3.50
2019-05-17T18:28:39.548Z,3.27
2019-05-17T18:31:08.023Z,3.10
2019-05-17T18:33:35.695Z,4.77
2019-05-17T18:36:03.381Z,4.90
2019-05-17T18:38:31.953Z,3.30
2019-05-17T18:40:59.610Z,3.60
2019-05-17T18:43:27.803Z,3.67
2019-05-17T18:45:55.914Z,3.33
2019-05-17T18:48:23.589Z,3.10
2019-05-17T18:50:51.443Z,3.33
2019-05-17T18:53:19.353Z,3.77
2019-05-17T18:55:47.191Z,3.50
2019-05-17T18:58:15.131Z,4.43
2019-05-17T19:00:43.971Z,3.93
2019-05-17T19:03:11.954Z,3.90
2019-05-17T19:05:39.960Z,3.70
2019-05-17T19:08:07.704Z,4.03
2019-05-17T19:10:35.783Z,4.00
2019-05-17T19:13:04.000Z,5.53
2019-05-17T19:15:32.588Z,5.13
2019-05-17T19:18:00.356Z,3.97
2019-05-17T19:20:28.290Z,4.40
2019-05-17T19:22:56.241Z,4.47
2019-05-17T19:25:24.107Z,3.97
2019-05-17T19:27:51.899Z,9.10
2019-05-17T19:30:20.118Z,4.00
2019-05-17T19:32:48.104Z,4.30
2019-05-17T19:35:16.415Z,4.37
2019-05-17T19:37:44.398Z,4.53
2019-05-17T19:40:12.365Z,4.80
2019-05-17T19:42:40.529Z,4.77
2019-05-17T19:45:09.079Z,4.60
2019-05-17T19:47:36.803Z,5.43
2019-05-17T19:50:06.075Z,5.37
2019-05-17T19:52:33.927Z,4.80
2019-05-17T19:55:01.655Z,5.43
2019-05-17T19:57:29.726Z,6.63
2019-05-17T19:59:57.651Z,5.33
2019-05-17T20:02:25.996Z,5.07
2019-05-17T20:04:54.174Z,5.77
2019-05-17T20:07:22.026Z,6.23
2019-05-17T20:09:50.285Z,5.50
2019-05-17T20:12:18.326Z,5.53
2019-05-17T20:14:46.293Z,5.30
2019-05-17T20:17:14.272Z,5.67
2019-05-17T20:19:42.084Z,6.23
2019-05-17T20:22:09.990Z,5.87
2019-05-17T20:24:37.833Z,6.20
2019-05-17T20:27:05.661Z,5.70
2019-05-17T20:29:33.548Z,5.90
2019-05-17T20:32:01.419Z,5.63
2019-05-17T20:34:29.272Z,6.07
2019-05-17T20:36:57.079Z,6.03
2019-05-17T20:39:25.003Z,5.80
2019-05-17T20:41:52.801Z,5.80
2019-05-17T20:44:40.238Z,5.53
2019-05-17T20:47:08.149Z,6.03
2019-05-17T20:49:36.227Z,5.53
2019-05-17T20:52:04.207Z,5.77
2019-05-17T20:54:32.526Z,5.43
2019-05-17T20:57:00.358Z,5.50
2019-05-17T20:59:28.264Z,5.93
2019-05-17T21:01:56.065Z,5.53
2019-05-17T21:04:24.154Z,5.70
2019-05-17T21:06:51.974Z,5.60
2019-05-17T21:09:19.860Z,5.37
2019-05-17T21:11:48.644Z,5.10
2019-05-17T21:14:17.802Z,5.70
2019-05-17T21:16:45.563Z,7.60
2019-05-17T21:19:13.384Z,6.30
2019-05-17T21:21:41.247Z,5.73
2019-05-17T21:24:09.015Z,5.83
2019-05-17T21:26:36.810Z,5.67
2019-05-17T21:29:04.577Z,6.13
2019-05-17T21:31:32.399Z,5.70
2019-05-17T21:34:00.360Z,5.53
2019-05-17T21:36:28.154Z,5.67
2019-05-17T21:38:56.007Z,6.07
2019-05-17T21:41:23.977Z,5.77
2019-05-17T21:43:52.026Z,7.67
2019-05-17T21:46:20.083Z,6.17
2019-05-17T21:48:48.275Z,5.50
2019-05-17T21:51:16.634Z,5.87
2019-05-17T21:53:44.553Z,5.60
2019-05-17T21:56:12.351Z,5.73
2019-05-17T21:58:40.124Z,5.80
2019-05-17T22:01:18.265Z,5.93
2019-05-17T22:03:48.174Z,6.00
2019-05-17T22:06:16.231Z,6.13
2019-05-17T22:08:44.241Z,5.50
2019-05-17T22:11:12.062Z,6.07
2019-05-17T22:13:39.803Z,6.40
2019-05-17T22:16:18.995Z,6.00
2019-05-17T22:18:37.004Z,6.47
2019-05-17T22:21:04.768Z,6.27
2019-05-17T22:23:32.462Z,6.30
2019-05-17T22:26:00.032Z,8.13
2019-05-17T22:28:27.729Z,5.70
2019-05-17T22:30:55.366Z,6.10
2019-05-17T22:33:23.004Z,22.07
2019-05-17T22:35:50.607Z,20.57
2019-05-17T22:38:18.214Z,5.97
2019-05-17T22:40:45.887Z,5.90
2019-05-17T22:43:13.516Z,6.03
2019-05-17T22:45:41.291Z,20.10
2019-05-17T22:48:08.995Z,5.83
2019-05-17T22:50:36.726Z,6.10
2019-05-17T22:53:04.367Z,6.10
2019-05-17T22:55:32.030Z,5.57
2019-05-17T22:57:59.694Z,6.27
2019-05-17T23:00:27.353Z,5.87
2019-05-17T23:02:54.994Z,6.17
2019-05-17T23:05:26.164Z,5.50
2019-05-17T23:07:52.094Z,6.13
2019-05-17T23:10:19.722Z,12.30
2019-05-17T23:12:47.344Z,5.47
2019-05-17T23:15:15.355Z,5.20
2019-05-17T23:17:43.042Z,4.67
2019-05-17T23:20:10.684Z,5.80
2019-05-17T23:22:38.317Z,6.13
2019-05-17T23:25:06.063Z,5.20
2019-05-17T23:27:33.691Z,5.80
2019-05-17T23:30:01.582Z,6.20
2019-05-17T23:32:29.155Z,5.43
2019-05-17T23:34:56.752Z,5.70
2019-05-17T23:37:24.479Z,5.80
2019-05-17T23:39:52.051Z,16.60
2019-05-17T23:42:19.638Z,7.60
2019-05-17T23:44:47.360Z,6.33
2019-05-17T23:47:14.965Z,9.07
2019-05-17T23:49:42.616Z,5.90
2019-05-17T23:52:10.201Z,6.20
2019-05-17T23:54:37.834Z,9.40
2019-05-17T23:57:05.429Z,6.20
2019-05-17T23:59:33.094Z,9.27
